Fritzlar, Germany

3:06 PM CEST on October 23, 2014 (GMT +0200)
Kassel Bettenhausen | Change Station
CLOSE
Current Station
Personal Weather Station
Location: Kassel, HESSEN
Elevation: 466 ft
Nearby Weather Stations

Elev 466 ft 51.31 °N, 9.53 °E | Updated 50 seconds ago

Mostly Cloudy
Mostly Cloudy
56.8 °F
Feels Like 56.8 °F
N
0.0
Wind Variable Wind from North
Gusts 0.0 mph

Today
High -- | Low -- °F
--% Chance of Precip.
Yesterday
High -- | Low -- °F
Precip. -- in
7:59 AM 6:14 PM
Waning Crescent, 0% visible
Pressure 30.21 in
Visibility 6.2 miles
Clouds Scattered Clouds 2700 ft
Mostly Cloudy 3300 ft
Dew Point 46 °F
Humidity 68%
Rainfall 0.00 in
Snow Depth Not available.
UV 1 out of 12
Pollen Not available.
Air Quality Not available.
Flu Activity Not available.
METAR EDVK 231250Z 27008KT 9999 SCT027 BKN033 12/07 Q1023 RMK ATIS S

More Conditions Fewer Conditions

Pressure 30.21 in
Visibility 6.2 miles
Clouds Scattered Clouds 2700 ft
Mostly Cloudy 3300 ft
Dew Point 46 °F
Humidity 68%
Rainfall 0.00 in
Snow Depth Not available.
UV 1 out of 12
Pollen Not available.
Air Quality Not available.
Flu Activity Not available.
METAR EDVK 231250Z 27008KT 9999 SCT027 BKN033 12/07 Q1023 RMK ATIS S

More Conditions Fewer Conditions

10-Day Weather Forecast

Almanac

Astronomy

Oct. 23, 2014 Rise Set
Actual Time 7:59 AM CEST 6:14 PM CEST
Civil Twilight 7:25 AM CEST 6:48 PM CEST
Nautical Twilight 6:46 AM CEST 7:26 PM CEST
Astronomical Twilight 6:08 AM CEST 8:04 PM CEST
Moon 7:19 AM CEST 6:07 PM CEST
Length of Visible Light 11h 22m
Length of Day
10h 14m
Tomorrow will be 3m 40s shorter.
Waning Crescent, 0% of the Moon is Illuminated
Today
Waning Crescent
Oct 23
New
Oct 30
First Quarter
Nov 6
Full
Nov 14
Last Quarter

Yesterday's Extremes

Country Highs Country Lows

Community

WunderPhotos

Upload Photos

1,764,222 photos uploaded!

Nearby

Snow Depth

Not available.

Earthquake Activity

City Distance Mag. Time & Date
No recent earthquake activity has been reported nearby.
Minimum magnitude displayed is 2.5.

Coastal Water Temperatures

Place Temperature
No Stations Reporting

Nearby Weather Stations